Time;durP1;ratioP1;P1;durP2;ratioP2;P2;SDS_P1;SDS_P2;PMS_P1;PMS_P2;Temp;Humidity;BMP_temperature;BMP_pressure;BME280_temperature;BME280_humidity;BME280_pressure;Samples;Min_cycle;Max_cycle;Signal;HPM_P1;HPM_P2
2022/01/02 00:00:41;;;;;;;0.60;0.60;;;11.90;91.20;;;;;;6148702;22;20001;-80
2022/01/02 00:03:08;;;;;;;0.82;0.60;;;11.90;91.20;;;;;;6148311;22;20135;-81
2022/01/02 00:05:37;;;;;;;1.25;0.50;;;11.90;91.10;;;;;;6250317;22;20002;-80
2022/01/02 00:08:07;;;;;;;0.52;0.50;;;11.90;91.10;;;;;;6251594;22;20012;-80
2022/01/02 00:10:36;;;;;;;0.70;0.50;;;11.90;91.10;;;;;;6253016;22;20372;-80
2022/01/02 00:13:04;;;;;;;0.80;0.60;;;11.80;91.10;;;;;;6147906;22;20009;-80
2022/01/02 00:15:30;;;;;;;1.42;0.80;;;11.90;91.20;;;;;;6249199;22;20014;-80
2022/01/02 00:18:08;;;;;;;0.68;0.50;;;11.90;91.20;;;;;;6207728;22;19996;-80
2022/01/02 00:20:37;;;;;;;0.43;0.43;;;11.90;91.20;;;;;;6251716;22;20001;-80
2022/01/02 00:23:06;;;;;;;1.33;0.68;;;11.90;91.20;;;;;;6226026;22;20088;-80
2022/01/02 00:25:38;;;;;;;0.95;0.70;;;11.80;91.20;;;;;;6260807;22;20016;-80
2022/01/02 00:28:05;;;;;;;1.88;0.75;;;11.90;91.20;;;;;;6203098;22;20063;-80
2022/01/02 00:30:33;;;;;;;0.93;0.65;;;11.90;91.20;;;;;;6252219;22;20044;-80
2022/01/02 00:33:01;;;;;;;0.95;0.60;;;11.80;91.10;;;;;;6251408;22;20013;-80
2022/01/02 00:35:27;;;;;;;1.77;0.70;;;11.80;91.10;;;;;;6226761;23;19998;-80
2022/01/02 00:37:53;;;;;;;0.80;0.60;;;11.80;91.10;;;;;;6232945;22;20123;-80
2022/01/02 00:40:18;;;;;;;1.08;0.60;;;11.90;91.10;;;;;;6252138;22;20033;-80
2022/01/02 00:42:45;;;;;;;1.92;0.80;;;11.90;91.10;;;;;;6253522;22;20371;-80
2022/01/02 00:45:26;;;;;;;1.15;0.70;;;11.80;91.10;;;;;;6150992;22;20085;-81
2022/01/02 00:48:06;;;;;;;0.70;0.68;;;11.90;91.10;;;;;;6251681;22;20495;-80
2022/01/02 00:50:49;;;;;;;0.90;0.70;;;11.90;91.00;;;;;;6226552;23;20002;-80
2022/01/02 00:53:20;;;;;;;1.00;0.80;;;11.90;91.00;;;;;;6149651;22;20014;-80
2022/01/02 00:55:47;;;;;;;0.95;0.70;;;11.90;90.90;;;;;;6227532;22;20009;-80
2022/01/02 00:58:16;;;;;;;1.15;0.90;;;12.00;91.00;;;;;;6210479;22;20003;-80
2022/01/02 01:00:49;;;;;;;2.13;0.80;;;11.90;90.90;;;;;;6151578;22;20121;-81
2022/01/02 01:03:25;;;;;;;1.52;0.95;;;11.90;90.90;;;;;;6254392;22;20016;-80
2022/01/02 01:05:53;;;;;;;0.73;0.73;;;11.90;91.00;;;;;;6252479;22;20089;-81
2022/01/02 01:08:21;;;;;;;1.20;0.73;;;11.80;91.00;;;;;;6258203;22;20090;-81
2022/01/02 01:10:48;;;;;;;1.75;0.80;;;11.90;91.00;;;;;;6205367;23;20006;-81
2022/01/02 01:13:14;;;;;;;2.05;0.93;;;11.80;91.00;;;;;;6212290;22;20049;-81
2022/01/02 01:15:40;;;;;;;1.10;0.80;;;11.80;91.00;;;;;;6158316;22;20002;-81
2022/01/02 01:18:06;;;;;;;0.90;0.70;;;11.90;91.00;;;;;;6163580;22;20051;-81
2022/01/02 01:20:37;;;;;;;1.30;0.90;;;11.70;91.00;;;;;;6248178;22;20007;-81
2022/01/02 01:23:03;;;;;;;1.65;0.93;;;11.80;91.00;;;;;;6237880;22;20493;-82
2022/01/02 01:25:29;;;;;;;1.38;0.73;;;11.80;91.00;;;;;;6241987;22;20002;-81
2022/01/02 01:27:56;;;;;;;1.90;1.15;;;11.70;91.00;;;;;;6238125;22;20488;-81
2022/01/02 01:30:24;;;;;;;1.63;0.75;;;11.80;91.10;;;;;;6240768;22;20310;-82
2022/01/02 01:32:52;;;;;;;1.33;0.90;;;11.70;91.10;;;;;;6210444;22;20002;-82
2022/01/02 01:35:20;;;;;;;2.50;1.08;;;11.70;91.10;;;;;;6213098;22;20002;-82
2022/01/02 01:37:46;;;;;;;1.13;0.70;;;11.70;91.20;;;;;;6240676;22;20117;-82
2022/01/02 01:40:12;;;;;;;2.33;0.90;;;11.70;91.20;;;;;;6241836;22;20001;-82
2022/01/02 01:42:42;;;;;;;1.83;1.10;;;11.70;91.20;;;;;;6267287;22;19981;-82
2022/01/02 01:48:00;;;;;;;2.00;1.10;;;11.60;91.20;;;;;;6227778;22;20096;-82
2022/01/02 01:50:30;;;;;;;1.38;0.80;;;11.70;91.20;;;;;;6278158;22;20006;-82
2022/01/02 01:52:56;;;;;;;2.13;1.10;;;11.60;91.30;;;;;;6255391;22;20071;-82
2022/01/02 01:55:22;;;;;;;1.25;1.00;;;11.60;91.30;;;;;;6251257;22;20420;-82
2022/01/02 01:57:49;;;;;;;1.35;0.90;;;11.60;91.30;;;;;;6258219;22;20034;-82
2022/01/02 02:00:18;;;;;;;0.93;0.68;;;11.60;91.30;;;;;;6222759;23;20066;-82
2022/01/02 02:02:44;;;;;;;1.27;0.80;;;11.60;91.40;;;;;;6220983;23;20013;-82
2022/01/02 02:05:12;;;;;;;0.73;0.60;;;11.50;91.40;;;;;;6170261;22;20008;-82
2022/01/02 02:07:41;;;;;;;0.93;0.68;;;11.60;91.40;;;;;;6252084;22;20064;-82
2022/01/02 02:10:13;;;;;;;1.13;0.85;;;11.50;91.40;;;;;;6245127;22;20005;-82
2022/01/02 02:12:41;;;;;;;1.83;0.73;;;11.60;91.50;;;;;;6265999;22;20007;-82
2022/01/02 02:15:09;;;;;;;1.35;0.77;;;11.60;91.40;;;;;;6276709;22;19995;-82
2022/01/02 02:17:35;;;;;;;2.70;1.20;;;11.70;91.40;;;;;;6282355;22;19996;-82
2022/01/02 02:20:19;;;;;;;1.90;0.70;;;11.70;91.40;;;;;;6247992;22;20006;-82
2022/01/02 02:22:48;;;;;;;2.80;1.00;;;11.70;91.40;;;;;;6249285;22;20037;-82
2022/01/02 02:25:16;;;;;;;1.73;1.00;;;11.70;91.30;;;;;;6249001;22;20077;-81
2022/01/02 02:27:51;;;;;;;2.20;1.02;;;11.70;91.40;;;;;;6254911;22;20072;-81
2022/01/02 02:30:17;;;;;;;2.03;0.95;;;11.70;91.40;;;;;;6248032;22;19997;-82
2022/01/02 02:32:43;;;;;;;2.95;1.20;;;11.80;91.40;;;;;;6220843;23;20044;-82
2022/01/02 02:35:09;;;;;;;2.20;1.17;;;11.80;91.30;;;;;;6271800;22;19997;-82
2022/01/02 02:37:41;;;;;;;2.80;1.10;;;11.90;91.30;;;;;;6272471;22;19997;-81
2022/01/02 02:40:08;;;;;;;1.98;1.00;;;11.90;91.30;;;;;;6221875;22;20010;-82
2022/01/02 02:42:46;;;;;;;2.25;1.00;;;11.90;91.30;;;;;;6246145;22;20321;-81
2022/01/02 02:50:37;;;;;;;1.95;1.17;;;11.90;91.20;;;;;;6252552;22;20009;-81
2022/01/02 02:53:02;;;;;;;2.60;1.20;;;12.00;91.20;;;;;;6264318;22;20017;-81
2022/01/02 02:55:32;;;;;;;1.88;1.20;;;12.10;91.30;;;;;;6264524;22;20318;-81
2022/01/02 02:58:08;;;;;;;1.75;1.05;;;12.10;91.20;;;;;;6239956;22;20008;-81
2022/01/02 03:00:34;;;;;;;2.10;1.10;;;12.20;91.20;;;;;;6165530;22;20027;-81
2022/01/02 03:03:00;;;;;;;2.15;1.05;;;12.20;91.10;;;;;;6164580;22;20001;-80
2022/01/02 03:05:25;;;;;;;1.95;1.00;;;12.20;91.10;;;;;;6163561;22;20009;-81
2022/01/02 03:07:52;;;;;;;2.97;1.10;;;12.30;91.40;;;;;;6242918;22;19989;-81
2022/01/02 03:10:18;;;;;;;1.75;1.10;;;12.30;91.10;;;;;;6247223;22;20000;-81
2022/01/02 03:12:43;;;;;;;2.33;1.20;;;12.30;91.10;;;;;;6268081;22;20495;-82
2022/01/02 03:15:09;;;;;;;1.23;0.90;;;12.40;91.10;;;;;;6173599;22;20014;-82
2022/01/02 03:17:35;;;;;;;3.40;1.20;;;12.40;91.10;;;;;;6260854;22;20052;-81
2022/01/02 03:20:00;;;;;;;2.47;1.00;;;12.40;91.00;;;;;;6225740;22;20020;-82
2022/01/02 03:22:26;;;;;;;1.83;1.00;;;12.40;91.00;;;;;;6274810;22;19986;-81
2022/01/02 03:24:52;;;;;;;3.15;1.13;;;12.40;91.00;;;;;;6248370;22;20001;-81
2022/01/02 03:27:18;;;;;;;1.85;1.10;;;12.40;91.00;;;;;;6222181;22;19998;-81
2022/01/02 03:29:43;;;;;;;4.10;1.40;;;12.40;91.00;;;;;;6171119;23;20002;-81
2022/01/02 03:32:09;;;;;;;4.18;1.20;;;12.40;91.00;;;;;;6250152;23;20001;-80
2022/01/02 03:34:35;;;;;;;2.25;1.17;;;12.50;91.00;;;;;;6171679;22;20025;-81
2022/01/02 03:37:01;;;;;;;4.07;1.48;;;12.40;91.00;;;;;;6170230;22;19993;-81
2022/01/02 03:39:27;;;;;;;3.53;1.20;;;12.50;91.00;;;;;;6224376;22;20079;-81
2022/01/02 03:41:52;;;;;;;3.17;1.30;;;12.50;91.10;;;;;;6271155;22;20438;-81
2022/01/02 03:44:18;;;;;;;2.00;1.17;;;12.50;91.10;;;;;;6273974;22;20006;-80
2022/01/02 03:46:44;;;;;;;2.83;1.23;;;12.60;91.00;;;;;;6269342;22;20395;-81
2022/01/02 03:49:11;;;;;;;2.60;1.20;;;12.60;91.00;;;;;;6270750;22;20001;-80
2022/01/02 03:51:36;;;;;;;2.38;1.30;;;12.70;91.00;;;;;;6165516;22;20032;-81
2022/01/02 03:54:02;;;;;;;2.42;1.20;;;12.70;90.90;;;;;;6167542;23;20442;-80
2022/01/02 03:56:28;;;;;;;2.80;1.10;;;12.70;90.90;;;;;;6255539;22;20269;-80
2022/01/02 03:58:54;;;;;;;2.63;1.10;;;12.70;90.90;;;;;;6272110;22;20006;-81
2022/01/02 04:01:20;;;;;;;3.08;1.20;;;12.70;90.90;;;;;;6245097;22;19989;-80
2022/01/02 04:03:46;;;;;;;1.88;1.10;;;12.80;90.80;;;;;;6273118;22;20329;-81
2022/01/02 04:06:11;;;;;;;4.20;1.33;;;12.80;90.90;;;;;;6272360;22;20034;-82
2022/01/02 04:08:37;;;;;;;1.90;1.02;;;12.80;90.90;;;;;;6280259;22;20000;-82
2022/01/02 04:11:03;;;;;;;1.48;1.10;;;12.80;90.90;;;;;;6247885;22;20049;-81
2022/01/02 04:13:29;;;;;;;2.05;1.10;;;12.80;90.90;;;;;;6217684;23;20417;-82
2022/01/02 04:15:54;;;;;;;1.83;1.08;;;12.80;91.00;;;;;;6272077;22;20010;-81
2022/01/02 04:18:20;;;;;;;3.63;1.30;;;12.80;90.90;;;;;;6166744;23;20448;-82
2022/01/02 04:20:49;;;;;;;2.72;1.00;;;12.90;90.90;;;;;;6168067;23;20009;-81
2022/01/02 04:23:15;;;;;;;3.03;1.25;;;12.90;90.80;;;;;;6246937;22;20322;-82
2022/01/02 04:25:40;;;;;;;3.67;1.20;;;12.90;90.80;;;;;;6168467;22;20037;-82
2022/01/02 04:28:06;;;;;;;1.63;0.90;;;12.90;90.80;;;;;;6279807;22;19996;-82
2022/01/02 04:30:32;;;;;;;4.97;1.27;;;12.90;90.80;;;;;;6249794;23;19986;-81
2022/01/02 04:32:57;;;;;;;3.55;1.20;;;12.90;90.90;;;;;;6217445;22;20013;-81
2022/01/02 04:35:23;;;;;;;3.00;1.48;;;12.80;90.90;;;;;;6169241;22;20009;-82
2022/01/02 04:37:49;;;;;;;2.22;1.10;;;12.90;90.80;;;;;;6231890;22;20041;-82
2022/01/02 04:40:15;;;;;;;2.58;1.30;;;12.80;90.80;;;;;;6273409;22;20005;-82
2022/01/02 04:42:41;;;;;;;2.92;1.40;;;12.90;90.80;;;;;;6169797;23;20079;-83
2022/01/02 04:45:08;;;;;;;2.17;1.30;;;12.80;90.80;;;;;;6278148;22;20011;-83
2022/01/02 04:47:33;;;;;;;3.00;1.23;;;12.70;90.90;;;;;;6274875;22;20065;-82
2022/01/02 04:49:59;;;;;;;2.58;1.27;;;12.70;91.00;;;;;;6272287;22;20008;-83
2022/01/02 04:52:25;;;;;;;1.75;0.82;;;12.60;91.00;;;;;;6253387;22;20051;-82
2022/01/02 04:54:51;;;;;;;1.95;1.15;;;12.60;91.10;;;;;;6271753;22;20390;-82
2022/01/02 04:57:16;;;;;;;2.38;1.20;;;12.50;91.10;;;;;;6270336;22;20008;-83
2022/01/02 04:59:42;;;;;;;2.97;1.38;;;12.50;91.20;;;;;;6166624;22;20332;-82
2022/01/02 05:02:08;;;;;;;2.22;1.15;;;12.50;91.20;;;;;;6272786;22;20029;-82
2022/01/02 05:04:34;;;;;;;1.17;0.90;;;12.50;91.30;;;;;;6273453;22;20103;-82
2022/01/02 05:06:59;;;;;;;2.25;0.98;;;12.30;91.30;;;;;;6224570;22;19998;-82
2022/01/02 05:09:25;;;;;;;3.13;1.10;;;12.30;91.30;;;;;;6247002;22;20005;-81
2022/01/02 05:11:52;;;;;;;1.83;0.90;;;12.30;91.40;;;;;;6244036;22;20032;-82
2022/01/02 05:14:18;;;;;;;1.92;1.17;;;12.30;91.40;;;;;;6243154;22;20020;-83
2022/01/02 05:16:43;;;;;;;1.60;0.90;;;12.20;91.50;;;;;;6249336;22;20009;-83
2022/01/02 05:19:09;;;;;;;1.75;0.95;;;12.20;91.50;;;;;;6262470;22;20023;-84
2022/01/02 05:21:35;;;;;;;1.70;0.95;;;12.20;91.50;;;;;;6239700;22;20481;-82
2022/01/02 05:24:00;;;;;;;2.40;1.35;;;12.20;91.50;;;;;;6088658;23;20011;-83
2022/01/02 05:26:26;;;;;;;1.50;1.00;;;12.10;91.50;;;;;;6086185;23;20010;-82
2022/01/02 05:28:52;;;;;;;3.20;1.08;;;12.20;91.60;;;;;;6060801;23;20014;-83
2022/01/02 05:31:18;;;;;;;1.55;0.90;;;12.10;91.50;;;;;;6036299;23;20089;-83
2022/01/02 05:33:43;;;;;;;1.30;0.90;;;12.10;91.60;;;;;;6114776;23;20049;-83
2022/01/02 05:36:09;;;;;;;2.13;1.20;;;12.10;91.60;;;;;;6092449;23;20034;-84
2022/01/02 05:38:35;;;;;;;1.95;0.95;;;12.10;91.60;;;;;;6088941;23;20034;-84
2022/01/02 05:41:01;;;;;;;1.60;1.00;;;12.10;91.60;;;;;;6090430;23;20011;-83
2022/01/02 05:43:27;;;;;;;3.13;1.13;;;12.10;91.60;;;;;;6042819;23;20011;-83
2022/01/02 05:45:53;;;;;;;1.77;1.00;;;12.10;91.60;;;;;;6043318;23;20027;-84
2022/01/02 05:48:19;;;;;;;2.00;1.05;;;12.10;91.60;;;;;;6089582;23;20010;-84
2022/01/02 05:50:45;;;;;;;2.05;1.00;;;12.10;91.60;;;;;;6086053;23;20007;-83
2022/01/02 05:53:11;;;;;;;2.38;1.02;;;12.00;91.60;;;;;;6087304;23;20082;-84
2022/01/02 05:55:37;;;;;;;1.17;0.70;;;12.10;91.70;;;;;;6229207;22;20066;-84
2022/01/02 05:58:03;;;;;;;2.03;0.95;;;12.00;91.70;;;;;;6272056;22;19997;-84
2022/01/02 06:00:29;;;;;;;2.42;1.00;;;12.00;91.70;;;;;;6222234;22;20001;-84
2022/01/02 06:02:55;;;;;;;1.50;0.88;;;11.90;91.80;;;;;;6274452;22;20065;-83
2022/01/02 06:05:21;;;;;;;0.98;0.68;;;11.80;91.80;;;;;;6269819;22;19996;-84
2022/01/02 06:07:46;;;;;;;0.70;0.70;;;11.90;91.80;;;;;;6245026;23;20027;-85
2022/01/02 06:10:12;;;;;;;0.90;0.70;;;11.80;91.80;;;;;;6253147;22;20062;-85
2022/01/02 06:12:38;;;;;;;1.27;0.73;;;11.80;91.80;;;;;;6266251;22;20311;-84
2022/01/02 06:15:06;;;;;;;1.00;0.60;;;11.80;91.90;;;;;;6209829;23;20005;-85
2022/01/02 06:17:32;;;;;;;0.88;0.55;;;11.80;91.90;;;;;;6238171;22;20001;-84
2022/01/02 06:19:57;;;;;;;1.17;0.70;;;11.90;92.00;;;;;;6206905;22;20009;-84
2022/01/02 06:22:23;;;;;;;0.98;0.80;;;11.80;91.90;;;;;;6231619;22;19998;-86
2022/01/02 06:24:49;;;;;;;1.08;0.70;;;11.80;91.90;;;;;;6258833;22;20010;-84
2022/01/02 06:27:14;;;;;;;0.80;0.50;;;11.80;91.90;;;;;;6234374;22;20009;-84
2022/01/02 06:29:40;;;;;;;0.90;0.65;;;11.90;91.90;;;;;;6206990;23;20006;-84
2022/01/02 06:32:06;;;;;;;1.45;0.75;;;11.70;91.90;;;;;;6258334;22;20029;-84
2022/01/02 06:34:32;;;;;;;2.53;0.50;;;11.80;91.90;;;;;;6233141;22;20088;-84
2022/01/02 06:36:58;;;;;;;0.70;0.55;;;11.80;91.90;;;;;;6260205;22;20009;-84
2022/01/02 06:39:24;;;;;;;1.25;0.88;;;11.80;91.90;;;;;;6238845;22;20004;-84
2022/01/02 06:41:51;;;;;;;0.73;0.50;;;11.80;91.90;;;;;;6238689;22;20418;-84
2022/01/02 06:44:17;;;;;;;1.30;0.70;;;11.80;91.90;;;;;;6246761;22;20004;-84
2022/01/02 06:46:43;;;;;;;1.23;0.60;;;11.80;91.90;;;;;;6213720;22;20013;-84
2022/01/02 06:49:08;;;;;;;2.30;0.70;;;11.90;91.90;;;;;;6262391;22;20469;-84
2022/01/02 06:51:34;;;;;;;1.38;0.80;;;11.80;91.90;;;;;;6214348;23;20006;-84
2022/01/02 06:54:00;;;;;;;0.68;0.52;;;11.70;91.90;;;;;;6280037;22;19999;-84
2022/01/02 06:56:25;;;;;;;1.23;0.70;;;11.70;92.00;;;;;;6258298;22;20011;-84
2022/01/02 06:58:51;;;;;;;0.73;0.60;;;11.70;92.00;;;;;;6226239;22;20028;-84
2022/01/02 07:01:17;;;;;;;1.65;0.90;;;11.80;92.00;;;;;;6224991;22;20016;-84
2022/01/02 07:03:43;;;;;;;1.15;0.68;;;11.70;91.90;;;;;;6224328;22;19990;-83
2022/01/02 07:06:08;;;;;;;2.85;0.77;;;11.70;91.90;;;;;;6220941;22;20001;-84
2022/01/02 07:08:34;;;;;;;0.90;0.80;;;11.60;91.90;;;;;;6247202;22;20055;-83
2022/01/02 07:11:00;;;;;;;1.17;0.73;;;11.80;91.90;;;;;;6244413;22;20464;-84
2022/01/02 07:13:26;;;;;;;0.88;0.70;;;11.80;91.90;;;;;;6270178;22;20022;-83
2022/01/02 07:15:52;;;;;;;1.42;0.90;;;11.80;91.90;;;;;;6244225;22;20005;-84
2022/01/02 07:18:17;;;;;;;2.65;0.90;;;11.80;91.80;;;;;;6280053;22;20074;-83
2022/01/02 07:20:43;;;;;;;1.55;0.70;;;11.80;91.80;;;;;;6218680;22;20029;-84
2022/01/02 07:23:09;;;;;;;2.67;0.93;;;11.80;91.80;;;;;;6263568;22;20089;-84
2022/01/02 07:25:35;;;;;;;3.35;1.17;;;11.80;91.80;;;;;;6276092;22;20020;-84
2022/01/02 07:28:02;;;;;;;1.42;0.90;;;11.90;91.70;;;;;;6237940;22;20008;-83
2022/01/02 07:30:27;;;;;;;1.98;0.90;;;11.90;91.70;;;;;;6225755;23;21176;-82
2022/01/02 07:32:53;;;;;;;2.28;1.10;;;12.00;91.70;;;;;;6225301;23;20015;-83
2022/01/02 07:35:19;;;;;;;1.80;0.98;;;12.00;91.60;;;;;;6253761;23;20028;-84
2022/01/02 07:37:45;;;;;;;2.88;1.02;;;11.90;91.50;;;;;;6253806;23;20462;-83
2022/01/02 07:40:11;;;;;;;1.95;1.13;;;11.90;91.50;;;;;;6261680;22;20015;-84
2022/01/02 07:42:37;;;;;;;1.75;1.00;;;11.80;91.50;;;;;;6266903;22;20020;-83
2022/01/02 07:45:03;;;;;;;1.85;1.08;;;11.90;91.60;;;;;;6213061;23;20030;-83
2022/01/02 07:47:29;;;;;;;1.30;0.88;;;11.90;91.60;;;;;;6236672;23;20019;-83
2022/01/02 07:49:55;;;;;;;1.40;0.95;;;11.80;91.60;;;;;;6253577;23;20434;-84
2022/01/02 07:52:24;;;;;;;1.00;0.75;;;11.80;91.60;;;;;;6231347;23;20440;-85
2022/01/02 07:54:53;;;;;;;1.55;0.90;;;11.80;91.60;;;;;;6219198;23;20019;-86
2022/01/02 07:57:19;;;;;;;2.65;1.00;;;11.80;91.70;;;;;;6220388;23;20007;-86
2022/01/02 07:59:45;;;;;;;1.52;0.90;;;11.70;91.70;;;;;;6217554;23;20812;-85
2022/01/02 08:02:11;;;;;;;1.10;0.73;;;11.70;91.80;;;;;;6244208;22;20077;-84
2022/01/02 08:04:37;;;;;;;1.05;0.70;;;11.70;91.80;;;;;;6239409;22;20416;-84
2022/01/02 08:07:02;;;;;;;1.95;1.13;;;11.70;91.80;;;;;;6227569;23;20306;-85
2022/01/02 08:09:28;;;;;;;1.58;0.90;;;11.70;91.80;;;;;;6259177;22;20006;-84
2022/01/02 08:11:54;;;;;;;1.10;0.82;;;11.60;91.70;;;;;;6228516;23;20020;-85
2022/01/02 08:14:21;;;;;;;1.23;0.85;;;11.70;91.70;;;;;;6253943;22;20433;-84
2022/01/02 08:16:47;;;;;;;1.15;0.77;;;11.70;91.70;;;;;;6256692;22;20060;-84
2022/01/02 08:19:13;;;;;;;0.82;0.77;;;11.70;91.70;;;;;;6228067;22;20443;-84
2022/01/02 08:21:42;;;;;;;1.85;0.82;;;11.70;91.70;;;;;;6257604;22;19995;-85
2022/01/02 08:24:08;;;;;;;1.85;0.90;;;11.60;91.70;;;;;;6251971;22;20010;-83
2022/01/02 08:26:34;;;;;;;1.88;0.90;;;11.70;91.70;;;;;;6227969;22;20107;-83
2022/01/02 08:29:00;;;;;;;1.67;0.70;;;11.70;91.70;;;;;;6234449;22;20110;-84
2022/01/02 08:31:27;;;;;;;1.02;0.70;;;11.70;91.70;;;;;;6228688;22;20347;-85
2022/01/02 08:33:54;;;;;;;0.50;0.50;;;11.60;91.70;;;;;;6240386;22;20016;-84
2022/01/02 08:36:23;;;;;;;1.23;0.73;;;11.60;91.70;;;;;;6251666;22;20005;-85
2022/01/02 08:38:48;;;;;;;1.27;0.80;;;11.60;92.00;;;;;;6230895;22;20088;-83
2022/01/02 08:41:15;;;;;;;1.17;0.70;;;11.70;91.70;;;;;;6237738;22;20013;-84
2022/01/02 08:43:41;;;;;;;1.40;0.80;;;11.70;91.60;;;;;;6262956;22;20519;-83
2022/01/02 08:46:07;;;;;;;3.60;1.08;;;11.80;91.60;;;;;;6240056;22;20428;-82
2022/01/02 08:48:34;;;;;;;1.25;0.60;;;11.80;91.60;;;;;;6271621;22;19996;-83
2022/01/02 08:51:00;;;;;;;1.17;0.60;;;11.80;91.60;;;;;;6255335;22;20008;-83
2022/01/02 08:53:28;;;;;;;0.80;0.70;;;11.70;91.50;;;;;;6238921;22;20555;-83
2022/01/02 08:55:54;;;;;;;0.63;0.60;;;11.80;91.50;;;;;;6268302;22;20008;-84
2022/01/02 08:58:20;;;;;;;1.42;0.70;;;11.90;91.50;;;;;;6239084;22;19998;-82
2022/01/02 09:00:46;;;;;;;1.23;0.77;;;11.70;91.40;;;;;;6164660;22;19998;-83
2022/01/02 09:03:12;;;;;;;1.25;0.70;;;11.70;91.40;;;;;;6278491;22;20004;-83
2022/01/02 09:05:38;;;;;;;2.35;0.90;;;11.70;91.50;;;;;;6163438;22;20013;-84
2022/01/02 09:08:05;;;;;;;1.13;0.70;;;11.80;91.50;;;;;;6269784;22;20384;-83
2022/01/02 09:10:31;;;;;;;1.23;0.80;;;11.70;91.40;;;;;;6164212;22;20017;-82
2022/01/02 09:12:57;;;;;;;1.25;0.80;;;11.80;91.40;;;;;;6250930;22;20033;-82
2022/01/02 09:15:22;;;;;;;1.38;1.00;;;11.80;91.40;;;;;;6264744;22;19985;-82
2022/01/02 09:17:48;;;;;;;2.10;1.08;;;11.70;91.30;;;;;;6270919;22;20037;-82
2022/01/02 09:20:15;;;;;;;2.20;0.90;;;11.80;91.30;;;;;;6164855;22;19998;-82
2022/01/02 09:22:40;;;;;;;2.20;1.08;;;11.90;91.30;;;;;;6269740;22;20000;-82
2022/01/02 09:25:08;;;;;;;2.20;0.98;;;11.80;91.20;;;;;;6239705;22;20002;-82
2022/01/02 09:27:35;;;;;;;1.80;1.10;;;11.90;91.20;;;;;;6262338;22;19998;-81
2022/01/02 09:30:04;;;;;;;1.20;1.00;;;11.90;91.20;;;;;;6248533;22;20001;-81
2022/01/02 09:32:30;;;;;;;1.67;1.13;;;11.90;91.10;;;;;;6211997;22;20002;-82
2022/01/02 09:34:56;;;;;;;2.45;1.00;;;12.00;91.10;;;;;;6260058;22;20074;-81
2022/01/02 09:37:22;;;;;;;2.92;1.30;;;12.00;91.00;;;;;;6259997;22;20002;-82
2022/01/02 09:39:48;;;;;;;2.78;1.30;;;12.00;91.00;;;;;;6164844;22;19997;-81
2022/01/02 09:42:13;;;;;;;1.58;1.27;;;12.00;90.90;;;;;;6262274;22;20021;-80
2022/01/02 09:44:39;;;;;;;2.00;1.30;;;12.10;90.90;;;;;;6270711;22;20000;-82
2022/01/02 09:47:08;;;;;;;3.00;1.40;;;12.10;90.90;;;;;;6210467;23;20001;-83
2022/01/02 09:49:36;;;;;;;3.15;1.38;;;12.10;90.90;;;;;;6162279;22;20068;-81
2022/01/02 09:52:02;;;;;;;2.53;1.45;;;12.10;90.90;;;;;;6165748;22;20024;-81
2022/01/02 09:54:28;;;;;;;2.22;1.40;;;12.00;90.80;;;;;;6163884;22;20014;-80
2022/01/02 09:56:54;;;;;;;2.05;1.45;;;12.10;90.80;;;;;;6156732;22;20329;-81
2022/01/02 09:59:19;;;;;;;2.65;1.38;;;12.00;90.80;;;;;;6259778;22;20005;-80
2022/01/02 10:01:45;;;;;;;3.22;1.58;;;12.00;90.80;;;;;;6256917;22;20040;-81
2022/01/02 10:04:11;;;;;;;2.67;1.35;;;12.00;90.80;;;;;;6157514;22;20012;-81
2022/01/02 10:06:47;;;;;;;2.75;1.50;;;12.00;90.80;;;;;;6156257;22;19998;-79
2022/01/02 10:09:28;;;;;;;2.92;1.50;;;12.00;90.80;;;;;;6266962;22;20023;-81
2022/01/02 10:12:14;;;;;;;3.15;1.50;;;11.90;90.80;;;;;;6271331;22;20071;-81
2022/01/02 10:14:40;;;;;;;2.03;1.30;;;11.90;90.90;;;;;;6154793;22;20017;-81
2022/01/02 10:17:05;;;;;;;2.35;1.40;;;12.00;90.80;;;;;;6242921;22;20076;-81
2022/01/02 10:19:36;;;;;;;3.22;1.70;;;12.00;90.80;;;;;;6258157;22;20005;-81
2022/01/02 10:22:05;;;;;;;2.30;1.63;;;12.10;90.80;;;;;;6152796;22;20001;-80
2022/01/02 10:24:36;;;;;;;2.42;1.55;;;12.10;90.70;;;;;;6267124;22;20006;-82
2022/01/02 10:27:11;;;;;;;3.05;1.73;;;12.20;90.70;;;;;;6153585;22;20443;-81
2022/01/02 10:29:45;;;;;;;3.42;2.10;;;12.30;90.60;;;;;;6217668;22;20006;-80
2022/01/02 10:32:32;;;;;;;4.90;2.13;;;12.30;90.50;;;;;;6257461;22;20006;-82
2022/01/02 10:35:18;;;;;;;3.42;2.08;;;12.40;90.40;;;;;;6229409;23;20045;-82
2022/01/02 10:37:50;;;;;;;3.58;1.80;;;12.40;90.40;;;;;;6257067;22;20001;-81
2022/01/02 10:40:29;;;;;;;5.20;2.05;;;12.50;90.40;;;;;;6264731;22;20096;-81
2022/01/02 10:42:56;;;;;;;5.13;2.15;;;12.50;90.30;;;;;;6264816;22;20011;-80
2022/01/02 10:45:35;;;;;;;3.33;2.08;;;12.60;90.30;;;;;;6252287;22;20009;-82
2022/01/02 10:48:02;;;;;;;4.13;2.08;;;12.50;90.20;;;;;;6148887;22;20008;-81
2022/01/02 10:50:28;;;;;;;3.05;1.98;;;12.60;90.20;;;;;;6250980;22;20006;-81
2022/01/02 10:52:53;;;;;;;2.95;2.10;;;12.60;90.20;;;;;;6262975;22;20070;-81
2022/01/02 10:55:26;;;;;;;3.17;1.80;;;12.60;90.20;;;;;;6226240;23;20019;-81
2022/01/02 10:57:53;;;;;;;4.07;2.22;;;12.70;90.10;;;;;;6230868;22;20012;-81
2022/01/02 11:00:23;;;;;;;4.57;2.20;;;12.80;90.10;;;;;;6235100;22;20079;-82
2022/01/02 11:02:49;;;;;;;4.80;2.35;;;12.80;90.00;;;;;;6149501;22;20077;-82
2022/01/02 11:05:17;;;;;;;5.18;2.30;;;12.80;90.00;;;;;;6226553;22;20452;-80
2022/01/02 11:07:46;;;;;;;3.90;2.15;;;12.70;90.00;;;;;;6252291;22;20002;-80
2022/01/02 11:10:15;;;;;;;5.00;2.38;;;12.70;90.00;;;;;;6157949;22;20021;-80
2022/01/02 11:12:43;;;;;;;4.97;2.53;;;12.70;90.00;;;;;;6150190;22;20069;-79
2022/01/02 11:15:12;;;;;;;5.40;2.63;;;12.70;90.00;;;;;;6252928;22;20060;-81
2022/01/02 11:17:38;;;;;;;5.13;2.47;;;12.70;90.00;;;;;;6227923;22;20283;-81
2022/01/02 11:20:07;;;;;;;4.25;2.20;;;12.70;90.00;;;;;;6226085;23;20012;-80
2022/01/02 11:22:40;;;;;;;4.03;2.20;;;12.60;90.00;;;;;;6232476;22;20011;-81
2022/01/02 11:25:29;;;;;;;3.63;1.92;;;12.70;90.00;;;;;;6247304;22;20083;-81
2022/01/02 11:28:00;;;;;;;3.05;1.83;;;12.70;90.10;;;;;;6149180;22;19998;-80
2022/01/02 11:30:40;;;;;;;3.15;1.85;;;12.70;90.10;;;;;;6255595;22;20041;-81
2022/01/02 11:33:12;;;;;;;5.63;2.22;;;12.70;90.10;;;;;;6234673;22;20057;-80
2022/01/02 11:35:47;;;;;;;5.78;2.17;;;12.70;90.10;;;;;;6251897;22;20558;-81
2022/01/02 11:38:16;;;;;;;4.57;2.00;;;12.70;90.10;;;;;;6232577;22;20297;-81
2022/01/02 11:40:59;;;;;;;5.90;2.20;;;12.60;90.00;;;;;;6158857;22;20009;-80
2022/01/02 11:43:51;;;;;;;4.30;2.05;;;12.70;90.00;;;;;;6259651;22;20007;-80
2022/01/02 11:46:21;;;;;;;3.95;2.00;;;12.70;90.00;;;;;;6148160;22;20441;-81
2022/01/02 11:49:13;;;;;;;4.57;1.83;;;12.70;90.00;;;;;;6277610;22;20002;-81
2022/01/02 11:51:51;;;;;;;;;;;12.70;90.00;;;;;;6149213;22;20017;-80
2022/01/02 11:54:41;;;;;;;4.05;2.00;;;12.70;90.00;;;;;;6147971;22;19947;-81
2022/01/02 11:57:44;;;;;;;6.07;1.80;;;12.80;90.00;;;;;;6149069;22;20092;-81
2022/01/02 12:00:17;;;;;;;3.63;2.05;;;12.70;89.90;;;;;;6229600;22;20003;-81
2022/01/02 12:02:43;;;;;;;3.42;1.65;;;12.80;89.90;;;;;;6227909;22;20013;-80
2022/01/02 12:05:12;;;;;;;4.53;1.60;;;12.90;89.90;;;;;;6251908;22;20005;-80
2022/01/02 12:07:56;;;;;;;3.92;1.90;;;12.80;89.80;;;;;;6248261;22;20005;-80
2022/01/02 12:10:27;;;;;;;4.95;1.80;;;12.90;89.80;;;;;;6203815;22;19998;-81
2022/01/02 12:13:13;;;;;;;3.58;1.88;;;12.80;89.70;;;;;;6261734;22;19995;-81
2022/01/02 12:16:08;;;;;;;4.75;2.17;;;13.00;89.80;;;;;;6239288;22;20017;-80
2022/01/02 12:18:39;;;;;;;5.05;2.10;;;12.80;89.80;;;;;;6276860;22;20092;-80
2022/01/02 12:21:10;;;;;;;4.40;1.95;;;12.80;89.70;;;;;;6246414;22;20005;-80
2022/01/02 12:23:53;;;;;;;4.53;1.90;;;12.90;89.80;;;;;;6150313;22;20009;-80
2022/01/02 12:26:27;;;;;;;3.45;1.50;;;12.90;89.80;;;;;;6251550;22;20014;-80
2022/01/02 12:29:04;;;;;;;3.65;1.73;;;12.90;89.70;;;;;;6253355;22;20013;-80
2022/01/02 12:31:36;;;;;;;4.57;1.92;;;12.90;89.80;;;;;;6150131;22;20009;-80
2022/01/02 12:34:08;;;;;;;4.25;1.70;;;12.90;89.70;;;;;;6253643;22;20012;-79
2022/01/02 12:36:35;;;;;;;4.75;1.95;;;12.90;89.70;;;;;;6150661;22;20014;-79
2022/01/02 12:39:07;;;;;;;6.68;2.15;;;13.00;89.60;;;;;;6202849;22;20005;-79
2022/01/02 12:41:36;;;;;;;4.32;2.00;;;13.00;89.60;;;;;;6251130;22;20013;-80
2022/01/02 12:44:09;;;;;;;4.93;2.30;;;13.00;89.60;;;;;;6202364;22;20002;-79
2022/01/02 12:46:42;;;;;;;4.82;2.22;;;13.00;89.70;;;;;;6247867;22;20429;-80
2022/01/02 12:49:12;;;;;;;3.08;1.80;;;12.90;89.70;;;;;;6228659;22;20062;-80
2022/01/02 12:51:41;;;;;;;3.92;1.77;;;12.90;89.80;;;;;;6227729;22;20002;-80
2022/01/02 12:54:11;;;;;;;4.45;1.73;;;12.90;89.80;;;;;;6227056;23;20345;-80
2022/01/02 12:56:41;;;;;;;3.08;1.90;;;12.90;89.80;;;;;;6252752;22;20017;-79
2022/01/02 12:59:27;;;;;;;3.28;1.50;;;13.00;89.90;;;;;;6262606;22;20004;-80
2022/01/02 13:02:06;;;;;;;4.20;1.60;;;13.00;89.90;;;;;;6252515;22;20426;-80